Flight Track Log - Related Links

Times and Time Zones

All times are in EDT time to prevent confusion due to time zone crossing. See the VRT51 flight status page for this flight to view local times or setup timezone preferences in your user account.

Time Position Orientation Groundspeed Altitude Reporting Facility
EDT Latitude Longitude Course Direction KTS MPH feet Rate Location/Type
Wed 02:34:28 PM 35.8831 -84.0056 260° West 223 257 6,200  Level Atlanta Center
Wed 02:35:28 PM 35.8706 -84.0925 260° West 222 255 8,800 3,350 Climbing Atlanta Center
Wed 02:36:28 PM 35.8539 -84.1900 258° West 263 303 12,900 3,950 Climbing Atlanta Center
Wed 02:37:28 PM 35.8347 -84.2975 258° West 296 341 16,700 3,450 Climbing Atlanta Center
Wed 02:38:28 PM 35.8158 -84.4178 259° West 333 383 19,800 1,650 Climbing Atlanta Center
Wed 02:39:28 PM 35.7944 -84.5533 259° West 376 433 20,000 62 Climbing Atlanta Center
Wed 02:41:42 PM 35.7408 -84.8658 258° West 421 484 20,000  Level Memphis Center
Wed 02:42:42 PM 35.7144 -85.0236 258° West 426 490 20,000  Level Memphis Center
Wed 02:43:42 PM 35.6892 -85.1658 258° West 426 490 20,000  Level Memphis Center
Wed 02:44:42 PM 35.6639 -85.3081 258° West 433 498 20,000 -454 Level Memphis Center
Wed 02:45:41 PM 35.6589 -85.4461 267° West 428 493 19,100 -1,563 Descending Memphis Center
Wed 02:46:41 PM 35.6603 -85.5892 271° West 428 493 16,900 -2,380 Descending Memphis Center
Wed 02:47:42 PM 35.6633 -85.7269 272° West 422 486 14,300 -2,132 Descending Memphis Center
Wed 02:48:42 PM 35.6611 -85.8369 269° West 416 479 12,600 -2,118 Descending Memphis Center
Wed 02:49:41 PM 35.6647 -85.9953 272° West 406 467 10,100 -1,300 Descending Memphis Center
Wed 02:50:42 PM 35.6936 -86.1061 288° West 351 404 10,000 -50 Descending Memphis Center
Wed 02:51:42 PM 35.7636 -86.1972 313° West 356 410 10,000  Level Memphis Center
Wed 02:52:42 PM 35.8289 -86.2836 313° West 363 418 10,000 -200 Level Memphis Center
Wed 02:53:42 PM 35.8875 -86.3575 314° West 332 382 9,600 -1,059 Descending Memphis Center
Wed 02:54:41 PM 35.9442 -86.4342 312° West 305 351 7,900 -1,650 Descending Memphis Center
Wed 02:55:42 PM 35.9986 -86.5033 314° West 297 342 6,300 -950 Descending Memphis Center
Wed 02:56:41 PM 36.0464 -86.5653 314° West 268 308 6,000 -650 Descending Memphis Center
Wed 02:57:42 PM 36.1069 -86.5650 360° North 215 247 5,000 -1,000 Descending Memphis Center
Wed 02:58:41 PM 36.1625 -86.5419 19° North 208 239 4,000 -900 Descending Memphis Center
Wed 02:59:42 PM 36.2117 -86.5217 18° North 203 234 3,200 -750 Descending Memphis Center
Wed 03:00:41 PM 36.2406 -86.5717 306° West 155 178 2,500 -500 Descending Memphis Center
Wed 03:01:42 PM 36.2211 -86.6242 245° Southwest 128 147 2,200 -295 Descending Memphis Center
Wed 03:05:00 PM 36.1167 -86.6667 260° West  Level FlightAware Approximate
Wed 03:12:00 PM 36.1245 -86.6782 260° West  Level Estimated
Wed 03:13:00 PM 36.1245 -86.6782 260° West  Level Estimated
Wed 03:14:00 PM 36.1245 -86.6782 260° West  Level Estimated
Wed 03:15:00 PM 36.1245 -86.6782 260° West  Level Estimated
Wed 03:16:00 PM 36.1245 -86.6782 260° West  Level Estimated
Wed 03:17:00 PM 36.1245 -86.6782 260° West  Level Estimated
Wed 03:18:00 PM 36.1245 -86.6782 260° West  Level Estimated

Login

Don't have an account? Register now (free) for customized features, flight alerts, and more!